createdAt,value
2018-12-31T00:00:02.935Z,3.68
2018-12-31T00:01:03.231Z,3.75
2018-12-31T00:02:02.575Z,3.75
2018-12-31T00:03:02.845Z,3.75
2018-12-31T00:04:03.158Z,3.75
2018-12-31T00:05:02.491Z,3.75
2018-12-31T00:06:02.919Z,3.75
2018-12-31T00:07:03.243Z,3.75
2018-12-31T00:08:02.534Z,3.75
2018-12-31T00:09:02.852Z,3.81
2018-12-31T00:10:03.156Z,3.81
2018-12-31T00:11:02.449Z,3.81
2018-12-31T00:12:02.816Z,3.68
2018-12-31T00:13:03.083Z,3.75
2018-12-31T00:14:02.369Z,3.75
2018-12-31T00:15:02.676Z,3.75
2018-12-31T00:16:02.996Z,3.75
2018-12-31T00:17:02.283Z,3.75
2018-12-31T00:18:02.651Z,3.75
2018-12-31T00:19:02.926Z,3.75
2018-12-31T00:20:03.241Z,3.75
2018-12-31T00:21:02.523Z,3.75
2018-12-31T00:22:02.848Z,3.75
2018-12-31T00:23:03.210Z,3.81
2018-12-31T00:24:02.534Z,3.81
2018-12-31T00:25:02.885Z,3.81
2018-12-31T00:26:03.161Z,3.75
2018-12-31T00:27:02.455Z,3.75
2018-12-31T00:28:02.848Z,3.68
2018-12-31T00:29:03.157Z,3.68
2018-12-31T00:30:02.503Z,3.68
2018-12-31T00:31:02.762Z,3.62
2018-12-31T00:32:03.099Z,3.62
2018-12-31T00:33:02.371Z,3.62
2018-12-31T00:34:02.736Z,3.68
2018-12-31T00:35:02.998Z,3.68
2018-12-31T00:36:02.280Z,3.62
2018-12-31T00:37:02.611Z,3.62
2018-12-31T00:38:02.923Z,3.56
2018-12-31T00:39:03.369Z,3.62
2018-12-31T00:40:02.686Z,3.62
2018-12-31T00:41:02.996Z,3.68
2018-12-31T00:42:02.286Z,3.68
2018-12-31T00:43:02.602Z,3.68
2018-12-31T00:44:02.927Z,3.62
2018-12-31T00:45:03.289Z,3.62
2018-12-31T00:46:02.615Z,3.62
2018-12-31T00:47:02.916Z,3.62
2018-12-31T00:48:03.235Z,3.56
2018-12-31T00:49:02.579Z,3.56
2018-12-31T00:50:02.920Z,3.56
2018-12-31T00:51:03.407Z,3.62
2018-12-31T00:52:02.675Z,3.62
2018-12-31T00:53:03.003Z,3.62
2018-12-31T00:54:02.296Z,3.62
2018-12-31T00:55:02.602Z,3.56
2018-12-31T00:56:02.922Z,3.56
2018-12-31T00:57:03.334Z,3.56
2018-12-31T00:58:02.595Z,3.56
2018-12-31T00:59:02.849Z,3.56
2018-12-31T01:00:03.206Z,3.56
2018-12-31T01:01:02.535Z,3.56
2018-12-31T01:02:02.887Z,3.56
2018-12-31T01:03:03.251Z,3.56
2018-12-31T01:04:02.570Z,3.56
2018-12-31T01:05:02.834Z,3.56
2018-12-31T01:06:03.163Z,3.56
2018-12-31T01:07:02.434Z,3.56
2018-12-31T01:08:02.760Z,3.56
2018-12-31T01:09:03.400Z,3.56
2018-12-31T01:10:02.821Z,3.62
2018-12-31T01:11:03.318Z,3.62
2018-12-31T01:12:02.623Z,3.62
2018-12-31T01:13:02.907Z,3.62
2018-12-31T01:14:03.168Z,3.62
2018-12-31T01:15:02.530Z,3.62
2018-12-31T01:16:02.836Z,3.62
2018-12-31T01:17:03.172Z,3.56
2018-12-31T01:18:02.439Z,3.56
2018-12-31T01:19:03.312Z,3.56
2018-12-31T01:20:02.593Z,3.56
2018-12-31T01:21:02.926Z,3.5
2018-12-31T01:22:03.227Z,3.56
2018-12-31T01:23:02.535Z,3.56
2018-12-31T01:24:02.836Z,3.56
2018-12-31T01:25:03.155Z,3.56
2018-12-31T01:26:02.440Z,3.56
2018-12-31T01:27:02.810Z,3.56
2018-12-31T01:28:03.086Z,3.56
2018-12-31T01:29:02.358Z,3.62
2018-12-31T01:30:02.672Z,3.62
2018-12-31T01:31:02.928Z,3.62
2018-12-31T01:32:03.303Z,3.56
2018-12-31T01:33:02.585Z,3.62
2018-12-31T01:34:02.829Z,3.62
2018-12-31T01:35:03.137Z,3.62
2018-12-31T01:36:02.430Z,3.62
2018-12-31T01:37:02.767Z,3.68
2018-12-31T01:38:03.130Z,3.62
2018-12-31T01:39:02.434Z,3.68
2018-12-31T01:40:02.754Z,3.62
2018-12-31T01:41:03.093Z,3.62
2018-12-31T01:42:02.370Z,3.56
2018-12-31T01:43:02.680Z,3.56
2018-12-31T01:44:03.049Z,3.62
2018-12-31T01:45:02.379Z,3.62
2018-12-31T01:46:02.674Z,3.62
2018-12-31T01:47:02.880Z,3.62
2018-12-31T01:48:03.151Z,3.56
2018-12-31T01:49:02.444Z,3.62
2018-12-31T01:50:02.863Z,3.62
2018-12-31T01:51:07.514Z,3.56
2018-12-31T01:52:02.356Z,3.56
2018-12-31T01:53:02.677Z,3.62
2018-12-31T01:54:02.990Z,3.56
2018-12-31T01:55:02.279Z,3.56
2018-12-31T01:56:02.652Z,3.56
2018-12-31T01:57:02.961Z,3.56
2018-12-31T01:58:02.268Z,3.56
2018-12-31T01:59:02.620Z,3.62
2018-12-31T02:00:02.922Z,3.62
2018-12-31T02:01:03.294Z,3.62
2018-12-31T02:02:02.615Z,3.62
2018-12-31T02:03:02.915Z,3.56
2018-12-31T02:04:03.240Z,3.56
2018-12-31T02:05:02.685Z,3.56
2018-12-31T02:06:02.999Z,3.62
2018-12-31T02:07:02.348Z,3.62
2018-12-31T02:08:02.890Z,3.62
2018-12-31T02:09:03.398Z,3.62
2018-12-31T02:10:02.925Z,3.62
2018-12-31T02:11:03.482Z,3.68
2018-12-31T02:12:02.978Z,3.62
2018-12-31T02:13:02.550Z,3.62
2018-12-31T02:14:02.829Z,3.62
2018-12-31T02:15:03.135Z,3.68
2018-12-31T02:16:02.432Z,3.68
2018-12-31T02:17:02.764Z,3.68
2018-12-31T02:18:03.122Z,3.62
2018-12-31T02:19:02.445Z,3.56
2018-12-31T02:20:02.775Z,3.56
2018-12-31T02:21:03.178Z,3.56
2018-12-31T02:22:02.434Z,3.56
2018-12-31T02:23:02.806Z,3.62
2018-12-31T02:24:03.364Z,3.62
2018-12-31T02:25:02.679Z,3.62
2018-12-31T02:26:03.008Z,3.62
2018-12-31T02:27:02.278Z,3.68
2018-12-31T02:28:02.593Z,3.68
2018-12-31T02:29:02.842Z,3.68
2018-12-31T02:30:03.262Z,3.68
2018-12-31T02:31:02.529Z,3.62
2018-12-31T02:32:03.718Z,3.68
2018-12-31T02:33:02.997Z,3.68
2018-12-31T02:34:02.282Z,3.68
2018-12-31T02:35:02.604Z,3.68
2018-12-31T02:36:02.979Z,3.68
2018-12-31T02:37:02.329Z,3.75
2018-12-31T02:38:02.610Z,3.75
2018-12-31T02:39:02.913Z,3.75
2018-12-31T02:40:03.238Z,3.75
2018-12-31T02:41:02.523Z,3.75
2018-12-31T02:42:02.881Z,3.75
2018-12-31T02:43:03.168Z,3.75
2018-12-31T02:44:02.436Z,3.75
2018-12-31T02:45:02.760Z,3.75
2018-12-31T02:46:03.082Z,3.68
2018-12-31T02:47:02.365Z,3.75
2018-12-31T02:48:02.724Z,3.75
2018-12-31T02:49:03.003Z,3.75
2018-12-31T02:50:02.393Z,3.75
2018-12-31T02:51:02.678Z,3.75
2018-12-31T02:52:03.046Z,3.81
2018-12-31T02:53:02.359Z,3.81
2018-12-31T02:54:02.763Z,3.75
2018-12-31T02:55:03.082Z,3.81
2018-12-31T02:56:02.362Z,3.81
2018-12-31T02:57:02.683Z,3.75
2018-12-31T02:58:03.027Z,3.81
2018-12-31T02:59:02.283Z,3.81
2018-12-31T03:00:02.647Z,3.81
2018-12-31T03:01:02.912Z,3.81
2018-12-31T03:02:03.228Z,3.75
2018-12-31T03:03:02.523Z,3.81
2018-12-31T03:04:02.842Z,3.81
2018-12-31T03:05:03.181Z,3.81
2018-12-31T03:06:02.695Z,3.81
2018-12-31T03:07:03.050Z,3.81
2018-12-31T03:08:02.360Z,3.81
2018-12-31T03:09:02.691Z,3.81
2018-12-31T03:10:03.004Z,3.81
2018-12-31T03:11:02.341Z,3.81
2018-12-31T03:12:02.693Z,3.81
2018-12-31T03:13:02.993Z,3.87
2018-12-31T03:14:02.278Z,3.81
2018-12-31T03:15:02.605Z,3.87
2018-12-31T03:16:02.917Z,3.87
2018-12-31T03:17:03.295Z,3.81
2018-12-31T03:18:02.597Z,3.87
2018-12-31T03:19:02.929Z,3.81
2018-12-31T03:20:03.238Z,3.81
2018-12-31T03:21:02.516Z,3.81
2018-12-31T03:22:02.890Z,3.87
2018-12-31T03:23:03.249Z,3.87
2018-12-31T03:24:02.519Z,3.81
2018-12-31T03:25:02.839Z,3.87
2018-12-31T03:26:03.156Z,3.87
2018-12-31T03:27:02.491Z,3.87
2018-12-31T03:28:02.845Z,3.87
2018-12-31T03:29:03.209Z,3.81
2018-12-31T03:30:02.514Z,3.87
2018-12-31T03:31:02.762Z,3.87
2018-12-31T03:32:03.086Z,3.81
2018-12-31T03:33:02.381Z,3.87
2018-12-31T03:34:02.834Z,3.87
2018-12-31T03:35:03.165Z,3.87
2018-12-31T03:36:02.436Z,3.87
2018-12-31T03:37:02.762Z,3.87
2018-12-31T03:38:03.137Z,3.87
2018-12-31T03:39:02.445Z,3.87
2018-12-31T03:40:02.815Z,3.87
2018-12-31T03:41:03.077Z,3.87
2018-12-31T03:42:02.364Z,3.87
2018-12-31T03:43:02.693Z,3.87
2018-12-31T03:44:03.000Z,3.87
2018-12-31T03:45:02.332Z,3.87
2018-12-31T03:46:02.594Z,3.87
2018-12-31T03:47:02.944Z,3.87
2018-12-31T03:48:03.242Z,3.87
2018-12-31T03:49:02.515Z,3.87
2018-12-31T03:50:02.896Z,3.87
2018-12-31T03:51:03.157Z,3.87
2018-12-31T03:52:02.441Z,3.93
2018-12-31T03:53:02.810Z,3.93
2018-12-31T03:54:03.085Z,3.93
2018-12-31T03:55:02.395Z,3.93
2018-12-31T03:56:02.767Z,3.93
2018-12-31T03:57:03.089Z,3.93
2018-12-31T03:58:02.349Z,3.93
2018-12-31T03:59:02.596Z,3.93
2018-12-31T04:00:02.912Z,3.93
2018-12-31T04:01:03.477Z,4
2018-12-31T04:02:02.748Z,3.93
2018-12-31T04:03:03.002Z,4
2018-12-31T04:04:02.335Z,4
2018-12-31T04:05:02.602Z,4
2018-12-31T04:06:02.988Z,4
2018-12-31T04:07:02.337Z,4
2018-12-31T04:08:02.653Z,4
2018-12-31T04:09:02.918Z,4
2018-12-31T04:10:03.237Z,4
2018-12-31T04:11:02.522Z,4
2018-12-31T04:12:02.936Z,4
2018-12-31T04:13:03.229Z,4
2018-12-31T04:14:02.536Z,4
2018-12-31T04:15:02.844Z,4
2018-12-31T04:16:03.153Z,4
2018-12-31T04:17:02.450Z,4
2018-12-31T04:18:02.817Z,4
2018-12-31T04:19:03.077Z,4
2018-12-31T04:20:02.356Z,4
2018-12-31T04:21:02.600Z,4.06
2018-12-31T04:22:02.917Z,4
2018-12-31T04:23:03.298Z,4.06
2018-12-31T04:24:02.608Z,4.06
2018-12-31T04:25:02.935Z,4
2018-12-31T04:26:03.255Z,4
2018-12-31T04:27:02.508Z,4.06
2018-12-31T04:28:02.910Z,4.06
2018-12-31T04:29:03.286Z,4.06
2018-12-31T04:30:02.599Z,4.06
2018-12-31T04:31:02.925Z,4.06
2018-12-31T04:32:03.243Z,4.06
2018-12-31T04:33:02.538Z,4.06
2018-12-31T04:34:02.863Z,4.06
2018-12-31T04:35:03.209Z,4.06
2018-12-31T04:36:02.508Z,4.06
2018-12-31T04:37:02.785Z,4.12
2018-12-31T04:38:03.081Z,4.12
2018-12-31T04:39:02.436Z,4.06
2018-12-31T04:40:02.769Z,4.06
2018-12-31T04:41:03.134Z,4.12
2018-12-31T04:42:04.199Z,4.12
2018-12-31T04:43:02.516Z,4.06
2018-12-31T04:44:02.838Z,4.12
2018-12-31T04:45:03.165Z,4.12
2018-12-31T04:46:02.526Z,4.12
2018-12-31T04:47:02.850Z,4.06
2018-12-31T04:48:03.153Z,4.06
2018-12-31T04:49:02.432Z,4.12
2018-12-31T04:50:02.672Z,4.12
2018-12-31T04:51:03.006Z,4.06
2018-12-31T04:52:02.330Z,4.06
2018-12-31T04:53:02.591Z,4
2018-12-31T04:54:02.925Z,4
2018-12-31T04:55:03.237Z,4.06
2018-12-31T04:56:02.528Z,4
2018-12-31T04:57:02.893Z,4.06
2018-12-31T04:58:03.154Z,4.06
2018-12-31T04:59:02.430Z,4.06
2018-12-31T05:00:02.775Z,4.06
2018-12-31T05:01:03.074Z,4.06
2018-12-31T05:02:02.375Z,4.06
2018-12-31T05:03:02.784Z,4.06
2018-12-31T05:04:03.093Z,4.06
2018-12-31T05:05:02.359Z,4.06
2018-12-31T05:06:02.696Z,4.06
2018-12-31T05:07:02.995Z,4.06
2018-12-31T05:08:02.292Z,4.06
2018-12-31T05:09:02.649Z,4.06
2018-12-31T05:10:02.987Z,4.06
2018-12-31T05:11:02.271Z,4.06
2018-12-31T05:12:02.602Z,4.06
2018-12-31T05:13:02.938Z,4.12
2018-12-31T05:14:03.396Z,4.12
2018-12-31T05:15:02.680Z,4.12
2018-12-31T05:16:03.003Z,4.12
2018-12-31T05:17:03.238Z,4.12
2018-12-31T05:18:02.521Z,4.12
2018-12-31T05:19:03.810Z,4.12
2018-12-31T05:20:03.974Z,4.12
2018-12-31T05:21:02.271Z,4.12
2018-12-31T05:22:02.515Z,4.12
2018-12-31T05:23:02.843Z,4.12
2018-12-31T05:24:03.189Z,4.12
2018-12-31T05:25:03.449Z,4.12
2018-12-31T05:26:02.435Z,4.12
2018-12-31T05:27:02.781Z,4.12
2018-12-31T05:28:03.070Z,4.12
2018-12-31T05:29:02.358Z,4.12
2018-12-31T05:30:03.669Z,4.12
2018-12-31T05:31:02.923Z,4.12
2018-12-31T05:32:03.248Z,4.12
2018-12-31T05:33:02.512Z,4.12
2018-12-31T05:34:02.750Z,4.12
2018-12-31T05:35:03.049Z,4.12
2018-12-31T05:36:02.608Z,4.12
2018-12-31T05:37:02.926Z,4.12
2018-12-31T05:38:02.296Z,4.12
2018-12-31T05:39:02.608Z,4.18
2018-12-31T05:40:02.929Z,4.18
2018-12-31T05:41:03.374Z,4.18
2018-12-31T05:42:02.698Z,4.18
2018-12-31T05:43:02.994Z,4.18
2018-12-31T05:44:02.294Z,4.18
2018-12-31T05:45:02.589Z,4.25
2018-12-31T05:46:02.844Z,4.18
2018-12-31T05:47:03.221Z,4.31
2018-12-31T05:48:02.553Z,4.31
2018-12-31T05:49:02.834Z,4.31
2018-12-31T05:50:03.163Z,4.31
2018-12-31T05:51:02.451Z,4.31
2018-12-31T05:52:02.755Z,4.31
2018-12-31T05:53:03.141Z,4.31
2018-12-31T05:54:02.419Z,4.31
2018-12-31T05:55:02.704Z,4.25
2018-12-31T05:56:03.038Z,4.31
2018-12-31T05:57:02.407Z,4.31
2018-12-31T05:58:02.677Z,4.25
2018-12-31T05:59:03.046Z,4.31
2018-12-31T06:00:02.344Z,4.31
2018-12-31T06:01:02.602Z,4.31
2018-12-31T06:02:02.920Z,4.31
2018-12-31T06:03:03.266Z,4.31
2018-12-31T06:04:02.446Z,4.31
2018-12-31T06:05:02.811Z,4.31
2018-12-31T06:06:03.078Z,4.31
2018-12-31T06:07:02.382Z,4.31
2018-12-31T06:08:02.696Z,4.31
2018-12-31T06:09:03.944Z,4.37
2018-12-31T06:10:03.293Z,4.43
2018-12-31T06:11:02.607Z,4.43
2018-12-31T06:12:02.977Z,4.37
2018-12-31T06:13:02.275Z,4.37
2018-12-31T06:14:02.516Z,4.37
2018-12-31T06:15:02.860Z,4.37
2018-12-31T06:16:03.211Z,4.43
2018-12-31T06:17:02.531Z,4.37
2018-12-31T06:18:02.852Z,4.37
2018-12-31T06:19:03.154Z,4.37
2018-12-31T06:20:02.441Z,4.31
2018-12-31T06:21:02.828Z,4.31
2018-12-31T06:22:03.264Z,4.37
2018-12-31T06:23:02.533Z,4.31
2018-12-31T06:24:02.921Z,4.31
2018-12-31T06:25:03.265Z,4.37
2018-12-31T06:26:02.515Z,4.31
2018-12-31T06:27:02.889Z,4.31
2018-12-31T06:28:03.262Z,4.31
2018-12-31T06:29:02.514Z,4.31
2018-12-31T06:30:02.830Z,4.31
2018-12-31T06:31:03.081Z,4.25
2018-12-31T06:32:03.241Z,4.31
2018-12-31T06:33:02.529Z,4.31
2018-12-31T06:34:02.936Z,4.31
2018-12-31T06:35:03.242Z,4.31
2018-12-31T06:36:02.514Z,4.25
2018-12-31T06:37:02.851Z,4.25
2018-12-31T06:38:03.176Z,4.31
2018-12-31T06:39:03.407Z,4.31
2018-12-31T06:40:02.685Z,4.31
2018-12-31T06:41:03.002Z,4.31
2018-12-31T06:42:02.292Z,4.25
2018-12-31T06:43:02.655Z,4.25
2018-12-31T06:44:03.006Z,4.25
2018-12-31T06:45:02.338Z,4.25
2018-12-31T06:46:02.605Z,4.25
2018-12-31T06:47:02.908Z,4.31
2018-12-31T06:48:03.171Z,4.25
2018-12-31T06:49:02.452Z,4.31
2018-12-31T06:50:03.733Z,4.31
2018-12-31T06:51:03.020Z,4.31
2018-12-31T06:52:02.294Z,4.31
2018-12-31T06:53:02.689Z,4.31
2018-12-31T06:54:03.003Z,4.25
2018-12-31T06:55:02.280Z,4.25
2018-12-31T06:56:02.688Z,4.25
2018-12-31T06:57:02.995Z,4.31
2018-12-31T06:58:02.283Z,4.31
2018-12-31T06:59:02.612Z,4.31
2018-12-31T07:00:03.029Z,4.31
2018-12-31T07:01:02.362Z,4.25
2018-12-31T07:02:02.732Z,4.31
2018-12-31T07:03:03.004Z,4.31
2018-12-31T07:04:02.282Z,4.31
2018-12-31T07:05:02.625Z,4.31
2018-12-31T07:06:02.918Z,4.31
2018-12-31T07:07:03.304Z,4.31
2018-12-31T07:08:02.607Z,4.31
2018-12-31T07:09:02.924Z,4.31
2018-12-31T07:10:03.257Z,4.31
2018-12-31T07:11:02.514Z,4.31
2018-12-31T07:12:02.841Z,4.31
2018-12-31T07:13:04.099Z,4.31
2018-12-31T07:14:02.367Z,4.31
2018-12-31T07:15:02.736Z,4.31
2018-12-31T07:16:03.008Z,4.31
2018-12-31T07:17:02.330Z,4.31
2018-12-31T07:18:02.610Z,4.31
2018-12-31T07:19:03.019Z,4.37
2018-12-31T07:20:02.286Z,4.31
2018-12-31T07:21:02.606Z,4.31
2018-12-31T07:22:02.929Z,4.31
2018-12-31T07:23:03.294Z,4.31
2018-12-31T07:24:02.605Z,4.31
2018-12-31T07:25:03.002Z,4.37
2018-12-31T07:26:02.275Z,4.37
2018-12-31T07:27:02.597Z,4.31
2018-12-31T07:28:02.918Z,4.31
2018-12-31T07:29:03.295Z,4.37
2018-12-31T07:30:02.653Z,4.37
2018-12-31T07:31:02.989Z,4.31
2018-12-31T07:32:02.271Z,4.31
2018-12-31T07:33:02.516Z,4.37
2018-12-31T07:34:02.830Z,4.31
2018-12-31T07:35:03.159Z,4.31
2018-12-31T07:36:02.458Z,4.37
2018-12-31T07:37:02.767Z,4.43
2018-12-31T07:38:03.077Z,4.43
2018-12-31T07:39:02.366Z,4.43
2018-12-31T07:40:02.685Z,4.43
2018-12-31T07:41:03.063Z,4.43
2018-12-31T07:42:02.357Z,4.43
2018-12-31T07:43:02.678Z,4.43
2018-12-31T07:44:03.009Z,4.43
2018-12-31T07:45:02.287Z,4.43
2018-12-31T07:46:02.657Z,4.43
2018-12-31T07:47:02.914Z,4.43
2018-12-31T07:48:03.156Z,4.43
2018-12-31T07:49:02.445Z,4.43
2018-12-31T07:50:02.767Z,4.5
2018-12-31T07:51:03.189Z,4.5
2018-12-31T07:52:02.445Z,4.5
2018-12-31T07:53:02.790Z,4.43
2018-12-31T07:54:03.119Z,4.43
2018-12-31T07:55:02.438Z,4.43
2018-12-31T07:56:02.812Z,4.5
2018-12-31T07:57:03.143Z,4.5
2018-12-31T07:58:02.441Z,4.5
2018-12-31T07:59:02.759Z,4.5
2018-12-31T08:00:03.095Z,4.5
2018-12-31T08:01:02.421Z,4.56
2018-12-31T08:02:02.700Z,4.5
2018-12-31T08:03:03.042Z,4.5
2018-12-31T08:04:02.352Z,4.5
2018-12-31T08:05:02.601Z,4.5
2018-12-31T08:06:02.916Z,4.5
2018-12-31T08:07:03.230Z,4.56
2018-12-31T08:08:02.534Z,4.56
2018-12-31T08:09:02.903Z,4.56
2018-12-31T08:10:03.161Z,4.56
2018-12-31T08:11:02.428Z,4.5
2018-12-31T08:12:02.692Z,4.5
2018-12-31T08:13:03.022Z,4.5
2018-12-31T08:14:02.279Z,4.56
2018-12-31T08:15:02.677Z,4.56
2018-12-31T08:16:03.059Z,4.56
2018-12-31T08:17:02.365Z,4.5
2018-12-31T08:18:02.682Z,4.56
2018-12-31T08:19:02.999Z,4.56
2018-12-31T08:20:02.360Z,4.56
2018-12-31T08:21:02.698Z,4.56
2018-12-31T08:22:03.013Z,4.56
2018-12-31T08:23:02.279Z,4.62
2018-12-31T08:24:02.602Z,4.56
2018-12-31T08:25:02.972Z,4.56
2018-12-31T08:26:02.240Z,4.62
2018-12-31T08:27:02.522Z,4.62
2018-12-31T08:28:02.842Z,4.62
2018-12-31T08:29:03.183Z,4.62
2018-12-31T08:30:02.440Z,4.62
2018-12-31T08:31:02.815Z,4.62
2018-12-31T08:32:03.130Z,4.62
2018-12-31T08:33:02.454Z,4.68
2018-12-31T08:34:02.749Z,4.68
2018-12-31T08:35:02.990Z,4.68
2018-12-31T08:36:02.301Z,4.68
2018-12-31T08:37:02.651Z,4.62
2018-12-31T08:38:02.913Z,4.68
2018-12-31T08:39:03.238Z,4.68
2018-12-31T08:40:02.573Z,4.68
2018-12-31T08:41:02.851Z,4.75
2018-12-31T08:42:03.184Z,4.75
2018-12-31T08:43:02.490Z,4.75
2018-12-31T08:44:02.759Z,4.75
2018-12-31T08:45:03.162Z,4.81
2018-12-31T08:46:02.432Z,4.81
2018-12-31T08:47:02.770Z,4.75
2018-12-31T08:48:03.132Z,4.75
2018-12-31T08:49:02.441Z,4.75
2018-12-31T08:50:03.209Z,4.75
2018-12-31T08:51:02.685Z,4.75
2018-12-31T08:52:03.013Z,4.81
2018-12-31T08:53:02.282Z,4.81
2018-12-31T08:54:02.622Z,4.81
2018-12-31T08:55:02.924Z,4.81
2018-12-31T08:56:03.245Z,4.87
2018-12-31T08:57:03.392Z,4.87
2018-12-31T08:58:02.678Z,4.87
2018-12-31T08:59:03.057Z,4.87
2018-12-31T09:00:03.234Z,4.93
2018-12-31T09:01:02.513Z,4.87
2018-12-31T09:02:03.688Z,4.87
2018-12-31T09:03:02.987Z,4.87
2018-12-31T09:04:02.287Z,4.87
2018-12-31T09:05:02.624Z,4.93
2018-12-31T09:06:02.910Z,4.93
2018-12-31T09:07:03.240Z,4.93
2018-12-31T09:08:02.525Z,5
2018-12-31T09:09:02.836Z,5
2018-12-31T09:10:03.134Z,5
2018-12-31T09:11:02.433Z,4.93
2018-12-31T09:12:02.690Z,4.93
2018-12-31T09:13:02.994Z,5
2018-12-31T09:14:02.273Z,5
2018-12-31T09:15:02.575Z,5
2018-12-31T09:16:02.892Z,5.06
2018-12-31T09:17:03.176Z,5.12
2018-12-31T09:18:02.530Z,5.12
2018-12-31T09:19:02.838Z,5.12
2018-12-31T09:20:03.158Z,5.12
2018-12-31T09:21:02.438Z,5.18
2018-12-31T09:22:02.825Z,5.18
2018-12-31T09:23:03.076Z,5.25
2018-12-31T09:24:02.374Z,5.25
2018-12-31T09:25:02.665Z,5.25
2018-12-31T09:26:02.933Z,5.25
2018-12-31T09:27:03.294Z,5.31
2018-12-31T09:28:02.602Z,5.31
2018-12-31T09:29:02.925Z,5.31
2018-12-31T09:30:03.239Z,5.31
2018-12-31T09:31:02.519Z,5.25
2018-12-31T09:32:02.867Z,5.25
2018-12-31T09:33:04.096Z,5.31
2018-12-31T09:34:02.358Z,5.31
2018-12-31T09:35:02.672Z,5.31
2018-12-31T09:36:02.994Z,5.37
2018-12-31T09:37:02.280Z,5.37
2018-12-31T09:38:02.605Z,5.31
2018-12-31T09:39:03.016Z,5.31
2018-12-31T09:40:02.279Z,5.31
2018-12-31T09:41:02.663Z,5.31
2018-12-31T09:42:03.018Z,5.31
2018-12-31T09:43:02.276Z,5.31
2018-12-31T09:44:02.604Z,5.31
2018-12-31T09:45:02.973Z,5.31
2018-12-31T09:46:03.198Z,5.37
2018-12-31T09:47:02.516Z,5.37
2018-12-31T09:48:02.833Z,5.43
2018-12-31T09:49:03.141Z,5.43
2018-12-31T09:50:02.493Z,5.37
2018-12-31T09:51:03.784Z,5.43
2018-12-31T09:52:03.073Z,5.37
2018-12-31T09:53:02.368Z,5.37
2018-12-31T09:54:02.697Z,5.37
2018-12-31T09:55:03.876Z,5.43
2018-12-31T09:56:03.209Z,5.37
2018-12-31T09:57:02.591Z,5.43
2018-12-31T09:58:02.917Z,5.43
2018-12-31T09:59:03.235Z,5.43
2018-12-31T10:00:02.521Z,5.37
2018-12-31T10:01:02.838Z,5.43
2018-12-31T10:02:03.212Z,5.43
2018-12-31T10:03:02.517Z,5.43
2018-12-31T10:04:02.768Z,5.43
2018-12-31T10:05:03.248Z,5.43
2018-12-31T10:06:02.516Z,5.5
2018-12-31T10:07:02.861Z,5.5
2018-12-31T10:08:03.408Z,5.5
2018-12-31T10:09:02.690Z,5.56
2018-12-31T10:10:03.019Z,5.56
2018-12-31T10:11:02.270Z,5.56
2018-12-31T10:12:02.518Z,5.62
2018-12-31T10:13:02.853Z,5.62
2018-12-31T10:14:03.223Z,5.62
2018-12-31T10:15:02.518Z,5.62
2018-12-31T10:16:02.865Z,5.62
2018-12-31T10:17:03.153Z,5.62
2018-12-31T10:18:02.502Z,5.62
2018-12-31T10:19:02.772Z,5.62
2018-12-31T10:20:03.179Z,5.68
2018-12-31T10:21:02.506Z,5.62
2018-12-31T10:22:02.756Z,5.68
2018-12-31T10:23:03.076Z,5.68
2018-12-31T10:24:02.380Z,5.68
2018-12-31T10:25:02.761Z,5.75
2018-12-31T10:26:03.065Z,5.68
2018-12-31T10:27:03.498Z,5.68
2018-12-31T10:28:02.916Z,5.75
2018-12-31T10:29:03.169Z,5.75
2018-12-31T10:30:02.450Z,5.75
2018-12-31T10:31:02.827Z,5.75
2018-12-31T10:32:03.176Z,5.81
2018-12-31T10:33:02.440Z,5.81
2018-12-31T10:34:02.758Z,5.81
2018-12-31T10:35:04.001Z,5.81
2018-12-31T10:36:02.289Z,5.81
2018-12-31T10:37:02.656Z,5.87
2018-12-31T10:38:02.925Z,5.87
2018-12-31T10:39:03.239Z,5.87
2018-12-31T10:40:02.519Z,5.87
2018-12-31T10:41:02.838Z,5.87
2018-12-31T10:42:03.262Z,5.93
2018-12-31T10:43:03.393Z,5.93
2018-12-31T10:44:02.700Z,5.93
2018-12-31T10:45:02.991Z,5.93
2018-12-31T10:46:02.284Z,5.93
2018-12-31T10:47:02.609Z,6.06
2018-12-31T10:48:03.086Z,6
2018-12-31T10:49:02.376Z,5.93
2018-12-31T10:50:02.687Z,5.93
2018-12-31T10:51:03.001Z,6
2018-12-31T10:52:02.306Z,6
2018-12-31T10:53:02.639Z,5.93
2018-12-31T10:54:03.017Z,5.93
2018-12-31T10:55:02.278Z,6
2018-12-31T10:56:02.611Z,6
2018-12-31T10:57:02.920Z,6
2018-12-31T10:58:03.247Z,6
2018-12-31T10:59:02.535Z,5.93
2018-12-31T11:00:02.903Z,5.93
2018-12-31T11:01:03.255Z,6
2018-12-31T11:02:02.523Z,6
2018-12-31T11:03:02.834Z,6
2018-12-31T11:04:03.125Z,6
2018-12-31T11:05:02.444Z,6
2018-12-31T11:06:02.809Z,6.06
2018-12-31T11:07:03.094Z,6
2018-12-31T11:08:02.350Z,6
2018-12-31T11:09:02.643Z,6
2018-12-31T11:10:02.916Z,6.06
2018-12-31T11:11:03.245Z,6.06
2018-12-31T11:12:02.605Z,6.06
2018-12-31T11:13:02.939Z,6
2018-12-31T11:14:03.269Z,6.06
2018-12-31T11:15:02.565Z,6.12
2018-12-31T11:16:03.716Z,6.12
2018-12-31T11:17:03.066Z,6.12
2018-12-31T11:18:02.354Z,6.06
2018-12-31T11:19:03.563Z,6.12
2018-12-31T11:20:02.893Z,6.12
2018-12-31T11:21:03.180Z,6.18
2018-12-31T11:22:02.441Z,6.18
2018-12-31T11:23:02.816Z,6.25
2018-12-31T11:24:03.161Z,6.25
2018-12-31T11:25:02.438Z,6.25
2018-12-31T11:26:02.757Z,6.25
2018-12-31T11:27:03.015Z,6.25
2018-12-31T11:28:02.310Z,6.25
2018-12-31T11:29:02.659Z,6.25
2018-12-31T11:30:02.928Z,6.25
2018-12-31T11:31:03.252Z,6.25
2018-12-31T11:32:02.523Z,6.25
2018-12-31T11:33:02.849Z,6.25
2018-12-31T11:34:03.259Z,6.25
2018-12-31T11:35:02.525Z,6.25
2018-12-31T11:36:02.918Z,6.18
2018-12-31T11:37:03.231Z,6.18
2018-12-31T11:38:02.519Z,6.18
2018-12-31T11:39:02.891Z,6.18
2018-12-31T11:40:03.318Z,6.12
2018-12-31T11:41:02.593Z,6.18
2018-12-31T11:42:02.837Z,6.18
2018-12-31T11:43:03.159Z,6.18
2018-12-31T11:44:02.438Z,6.18
2018-12-31T11:45:02.761Z,6.18
2018-12-31T11:46:03.166Z,6.18
2018-12-31T11:47:03.256Z,6.12
2018-12-31T11:48:02.679Z,6.12
2018-12-31T11:49:03.007Z,6.12
2018-12-31T11:50:02.282Z,6.12
2018-12-31T11:51:02.611Z,6.12
2018-12-31T11:52:03.043Z,6.12
2018-12-31T11:53:02.359Z,6.12
2018-12-31T11:54:02.686Z,6.12
2018-12-31T11:55:03.537Z,6.12
2018-12-31T11:56:03.043Z,6.12
2018-12-31T11:57:02.379Z,6.18
2018-12-31T11:58:02.733Z,6.18
2018-12-31T11:59:03.043Z,6.18
2018-12-31T12:00:02.367Z,6.18
2018-12-31T12:01:02.683Z,6.18
2018-12-31T12:02:03.009Z,6.18
2018-12-31T12:03:02.447Z,6.18
2018-12-31T12:04:02.803Z,6.12
2018-12-31T12:05:03.076Z,6.12
2018-12-31T12:06:02.362Z,6.12
2018-12-31T12:07:02.684Z,6.12
2018-12-31T12:08:03.013Z,6.12
2018-12-31T12:09:02.393Z,6.12
2018-12-31T12:10:02.800Z,6.12
2018-12-31T12:11:03.129Z,6.06
2018-12-31T12:12:02.467Z,6.06
2018-12-31T12:13:02.754Z,6.06
2018-12-31T12:14:03.080Z,6.06
2018-12-31T12:15:02.328Z,6.12
2018-12-31T12:16:02.689Z,6.12
2018-12-31T12:17:03.870Z,6.12
2018-12-31T12:18:03.172Z,6.18
2018-12-31T12:19:02.450Z,6.25
2018-12-31T12:20:02.767Z,6.25
2018-12-31T12:21:02.363Z,6.31
2018-12-31T12:22:02.730Z,6.31
2018-12-31T12:23:02.995Z,6.31
2018-12-31T12:24:02.282Z,6.31
2018-12-31T12:25:02.622Z,6.31
2018-12-31T12:26:02.918Z,6.31
2018-12-31T12:27:03.292Z,6.31
2018-12-31T12:28:02.594Z,6.25
2018-12-31T12:29:02.913Z,6.25
2018-12-31T12:30:02.385Z,6.25
2018-12-31T12:31:02.688Z,6.31
2018-12-31T12:32:03.017Z,6.31
2018-12-31T12:33:02.339Z,6.25
2018-12-31T12:34:02.603Z,6.25
2018-12-31T12:35:02.884Z,6.25
2018-12-31T12:36:03.151Z,6.18
2018-12-31T12:37:02.488Z,6.18
2018-12-31T12:38:03.691Z,6.18
2018-12-31T12:39:02.274Z,6.18
2018-12-31T12:40:02.598Z,6.18
2018-12-31T12:41:02.911Z,6.18
2018-12-31T12:42:03.251Z,6.18
2018-12-31T12:43:02.563Z,6.25
2018-12-31T12:44:02.970Z,6.25
2018-12-31T12:45:02.291Z,6.31
2018-12-31T12:46:02.615Z,6.31
2018-12-31T12:47:02.997Z,6.25
2018-12-31T12:48:02.269Z,6.25
2018-12-31T12:49:02.526Z,6.31
2018-12-31T12:50:02.925Z,6.31
2018-12-31T12:51:03.326Z,6.31
2018-12-31T12:52:02.604Z,6.31
2018-12-31T12:53:02.993Z,6.31
2018-12-31T12:54:02.293Z,6.31
2018-12-31T12:55:03.597Z,6.31
2018-12-31T12:56:03.050Z,6.31
2018-12-31T12:57:02.377Z,6.31
2018-12-31T12:58:02.775Z,6.31
2018-12-31T12:59:03.969Z,6.25
2018-12-31T13:00:02.276Z,6.31
2018-12-31T13:01:02.717Z,6.31
2018-12-31T13:02:02.991Z,6.31
2018-12-31T13:03:02.289Z,6.31
2018-12-31T13:04:02.594Z,6.31
2018-12-31T13:05:03.682Z,6.25
2018-12-31T13:06:02.458Z,6.31
2018-12-31T13:07:02.812Z,6.25
2018-12-31T13:08:03.960Z,6.31
2018-12-31T13:09:02.362Z,6.25
2018-12-31T13:10:02.670Z,6.25
2018-12-31T13:11:03.010Z,6.31
2018-12-31T13:12:02.282Z,6.31
2018-12-31T13:13:02.655Z,6.31
2018-12-31T13:14:03.210Z,6.31
2018-12-31T13:15:02.570Z,6.31
2018-12-31T13:16:03.050Z,6.31
2018-12-31T13:17:02.636Z,6.31
2018-12-31T13:18:02.574Z,6.31
2018-12-31T13:19:04.072Z,6.25
2018-12-31T13:20:03.156Z,6.25
2018-12-31T13:21:02.437Z,6.31
2018-12-31T13:22:02.750Z,6.25
2018-12-31T13:23:02.462Z,6.31